sensor_id;sensor_type;location;lat;lon;timestamp;temperature;humidity
16198;DHT22;8206;51.440;6.914;2022-12-07T00:01:49;5.30;99.90
16198;DHT22;8206;51.440;6.914;2022-12-07T00:04:17;5.30;99.90
16198;DHT22;8206;51.440;6.914;2022-12-07T00:06:46;5.20;99.90
16198;DHT22;8206;51.440;6.914;2022-12-07T00:09:16;5.20;32.40
16198;DHT22;8206;51.440;6.914;2022-12-07T00:11:44;5.20;99.90
16198;DHT22;8206;51.440;6.914;2022-12-07T00:14:13;5.20;99.90
16198;DHT22;8206;51.440;6.914;2022-12-07T00:16:40;5.30;97.20
16198;DHT22;8206;51.440;6.914;2022-12-07T00:19:09;5.30;99.90
16198;DHT22;8206;51.440;6.914;2022-12-07T00:21:36;5.20;99.90
16198;DHT22;8206;51.440;6.914;2022-12-07T00:24:04;5.20;99.90
16198;DHT22;8206;51.440;6.914;2022-12-07T00:26:34;5.20;99.90
16198;DHT22;8206;51.440;6.914;2022-12-07T00:29:04;5.20;1.00
16198;DHT22;8206;51.440;6.914;2022-12-07T00:31:32;5.20;99.90
16198;DHT22;8206;51.440;6.914;2022-12-07T00:34:00;5.20;99.90
16198;DHT22;8206;51.440;6.914;2022-12-07T00:36:27;5.20;99.90
16198;DHT22;8206;51.440;6.914;2022-12-07T00:38:56;5.20;99.90
16198;DHT22;8206;51.440;6.914;2022-12-07T00:41:25;5.20;99.90
16198;DHT22;8206;51.440;6.914;2022-12-07T00:43:53;5.20;99.90
16198;DHT22;8206;51.440;6.914;2022-12-07T00:46:20;5.20;99.90
16198;DHT22;8206;51.440;6.914;2022-12-07T00:48:48;5.30;99.90
16198;DHT22;8206;51.440;6.914;2022-12-07T00:51:17;5.20;99.90
16198;DHT22;8206;51.440;6.914;2022-12-07T00:53:44;5.20;99.90
16198;DHT22;8206;51.440;6.914;2022-12-07T00:56:13;5.30;99.90
16198;DHT22;8206;51.440;6.914;2022-12-07T00:58:40;5.20;99.90
16198;DHT22;8206;51.440;6.914;2022-12-07T01:01:09;5.30;99.90
16198;DHT22;8206;51.440;6.914;2022-12-07T01:03:37;5.30;99.90
16198;DHT22;8206;51.440;6.914;2022-12-07T01:06:04;5.30;99.90
16198;DHT22;8206;51.440;6.914;2022-12-07T01:08:31;5.20;99.90
16198;DHT22;8206;51.440;6.914;2022-12-07T01:10:59;5.30;99.90
16198;DHT22;8206;51.440;6.914;2022-12-07T01:13:27;5.20;99.90
16198;DHT22;8206;51.440;6.914;2022-12-07T01:15:57;5.20;99.90
16198;DHT22;8206;51.440;6.914;2022-12-07T01:18:27;5.20;99.90
16198;DHT22;8206;51.440;6.914;2022-12-07T01:20:58;5.20;99.90
16198;DHT22;8206;51.440;6.914;2022-12-07T01:23:25;5.20;99.90
16198;DHT22;8206;51.440;6.914;2022-12-07T01:25:54;5.20;99.90
16198;DHT22;8206;51.440;6.914;2022-12-07T01:28:21;5.20;99.90
16198;DHT22;8206;51.440;6.914;2022-12-07T01:30:55;5.10;99.90
16198;DHT22;8206;51.440;6.914;2022-12-07T01:33:22;5.20;99.90
16198;DHT22;8206;51.440;6.914;2022-12-07T01:35:50;5.10;99.90
16198;DHT22;8206;51.440;6.914;2022-12-07T01:38:17;5.20;99.90
16198;DHT22;8206;51.440;6.914;2022-12-07T01:40:44;5.20;99.90
16198;DHT22;8206;51.440;6.914;2022-12-07T01:43:16;5.20;99.90
16198;DHT22;8206;51.440;6.914;2022-12-07T01:45:43;5.20;99.90
16198;DHT22;8206;51.440;6.914;2022-12-07T01:48:13;5.20;99.90
16198;DHT22;8206;51.440;6.914;2022-12-07T01:50:41;5.20;99.90
16198;DHT22;8206;51.440;6.914;2022-12-07T01:53:11;5.20;99.90
16198;DHT22;8206;51.440;6.914;2022-12-07T01:55:42;5.20;99.90
16198;DHT22;8206;51.440;6.914;2022-12-07T01:58:10;5.20;99.90
16198;DHT22;8206;51.440;6.914;2022-12-07T02:00:38;5.20;99.90
16198;DHT22;8206;51.440;6.914;2022-12-07T02:03:08;5.20;99.90
16198;DHT22;8206;51.440;6.914;2022-12-07T02:05:37;5.20;99.90
16198;DHT22;8206;51.440;6.914;2022-12-07T02:08:05;5.10;99.90
16198;DHT22;8206;51.440;6.914;2022-12-07T02:10:33;5.10;99.90
16198;DHT22;8206;51.440;6.914;2022-12-07T02:13:03;5.10;99.90
16198;DHT22;8206;51.440;6.914;2022-12-07T02:15:39;5.10;99.90
16198;DHT22;8206;51.440;6.914;2022-12-07T02:18:13;5.10;99.90
16198;DHT22;8206;51.440;6.914;2022-12-07T02:20:47;5.10;99.90
16198;DHT22;8206;51.440;6.914;2022-12-07T02:23:40;5.10;99.90
16198;DHT22;8206;51.440;6.914;2022-12-07T02:26:47;5.00;99.90
16198;DHT22;8206;51.440;6.914;2022-12-07T02:29:23;5.00;99.90
16198;DHT22;8206;51.440;6.914;2022-12-07T02:31:59;5.00;99.90
16198;DHT22;8206;51.440;6.914;2022-12-07T02:34:37;5.00;99.90
16198;DHT22;8206;51.440;6.914;2022-12-07T02:37:12;4.90;99.90
16198;DHT22;8206;51.440;6.914;2022-12-07T02:39:45;4.80;99.90
16198;DHT22;8206;51.440;6.914;2022-12-07T02:42:17;4.90;99.90
16198;DHT22;8206;51.440;6.914;2022-12-07T02:44:46;4.80;99.90
16198;DHT22;8206;51.440;6.914;2022-12-07T02:47:16;4.90;99.90
16198;DHT22;8206;51.440;6.914;2022-12-07T02:49:45;4.80;99.90
16198;DHT22;8206;51.440;6.914;2022-12-07T02:52:12;4.90;99.90
16198;DHT22;8206;51.440;6.914;2022-12-07T02:54:39;4.80;99.90
16198;DHT22;8206;51.440;6.914;2022-12-07T02:57:18;4.80;99.90
16198;DHT22;8206;51.440;6.914;2022-12-07T02:59:59;4.80;99.90
16198;DHT22;8206;51.440;6.914;2022-12-07T03:02:35;4.70;99.90
16198;DHT22;8206;51.440;6.914;2022-12-07T03:05:13;4.70;99.90
16198;DHT22;8206;51.440;6.914;2022-12-07T03:07:49;4.60;99.90
16198;DHT22;8206;51.440;6.914;2022-12-07T03:10:24;4.60;99.90
16198;DHT22;8206;51.440;6.914;2022-12-07T03:13:02;4.60;99.90
16198;DHT22;8206;51.440;6.914;2022-12-07T03:15:33;4.50;99.90
16198;DHT22;8206;51.440;6.914;2022-12-07T03:18:02;4.40;99.90
16198;DHT22;8206;51.440;6.914;2022-12-07T03:20:30;4.40;99.90
16198;DHT22;8206;51.440;6.914;2022-12-07T03:22:58;4.40;99.90
16198;DHT22;8206;51.440;6.914;2022-12-07T03:25:26;4.40;99.90
16198;DHT22;8206;51.440;6.914;2022-12-07T03:27:55;4.40;99.90
16198;DHT22;8206;51.440;6.914;2022-12-07T03:30:26;4.30;99.90
16198;DHT22;8206;51.440;6.914;2022-12-07T03:32:59;4.30;99.90
16198;DHT22;8206;51.440;6.914;2022-12-07T03:35:30;4.30;99.90
16198;DHT22;8206;51.440;6.914;2022-12-07T03:38:02;4.30;99.90
16198;DHT22;8206;51.440;6.914;2022-12-07T03:40:35;4.30;99.90
16198;DHT22;8206;51.440;6.914;2022-12-07T03:43:04;4.20;99.90
16198;DHT22;8206;51.440;6.914;2022-12-07T03:45:37;4.20;99.90
16198;DHT22;8206;51.440;6.914;2022-12-07T03:48:10;4.10;99.90
16198;DHT22;8206;51.440;6.914;2022-12-07T03:50:44;4.10;99.90
16198;DHT22;8206;51.440;6.914;2022-12-07T03:53:15;4.10;99.90
16198;DHT22;8206;51.440;6.914;2022-12-07T03:55:45;4.20;99.90
16198;DHT22;8206;51.440;6.914;2022-12-07T03:58:16;4.20;99.90
16198;DHT22;8206;51.440;6.914;2022-12-07T04:00:44;4.30;99.90
16198;DHT22;8206;51.440;6.914;2022-12-07T04:03:12;4.30;99.90
16198;DHT22;8206;51.440;6.914;2022-12-07T04:05:39;4.30;99.90
16198;DHT22;8206;51.440;6.914;2022-12-07T04:08:07;4.30;99.90
16198;DHT22;8206;51.440;6.914;2022-12-07T04:10:34;4.30;99.90
16198;DHT22;8206;51.440;6.914;2022-12-07T04:13:01;4.30;99.90
16198;DHT22;8206;51.440;6.914;2022-12-07T04:15:27;4.30;99.90
16198;DHT22;8206;51.440;6.914;2022-12-07T04:17:54;4.30;99.90
16198;DHT22;8206;51.440;6.914;2022-12-07T04:20:22;4.30;99.90
16198;DHT22;8206;51.440;6.914;2022-12-07T04:22:49;4.20;99.90
16198;DHT22;8206;51.440;6.914;2022-12-07T04:25:16;4.10;99.90
16198;DHT22;8206;51.440;6.914;2022-12-07T04:27:43;4.10;99.90
16198;DHT22;8206;51.440;6.914;2022-12-07T04:30:10;4.10;99.90
16198;DHT22;8206;51.440;6.914;2022-12-07T04:32:37;4.00;99.90
16198;DHT22;8206;51.440;6.914;2022-12-07T04:35:05;3.90;99.90
16198;DHT22;8206;51.440;6.914;2022-12-07T04:37:33;3.80;99.90
16198;DHT22;8206;51.440;6.914;2022-12-07T04:40:00;3.70;99.90
16198;DHT22;8206;51.440;6.914;2022-12-07T04:42:27;3.60;99.90
16198;DHT22;8206;51.440;6.914;2022-12-07T04:44:53;3.50;99.90
16198;DHT22;8206;51.440;6.914;2022-12-07T04:47:20;3.50;99.90
16198;DHT22;8206;51.440;6.914;2022-12-07T04:49:47;3.50;99.90
16198;DHT22;8206;51.440;6.914;2022-12-07T04:52:14;3.50;99.90
16198;DHT22;8206;51.440;6.914;2022-12-07T04:54:42;3.60;99.90
16198;DHT22;8206;51.440;6.914;2022-12-07T04:57:08;3.60;99.90
16198;DHT22;8206;51.440;6.914;2022-12-07T04:59:35;3.50;99.90
16198;DHT22;8206;51.440;6.914;2022-12-07T05:02:02;3.50;99.90
16198;DHT22;8206;51.440;6.914;2022-12-07T05:04:29;3.50;99.90
16198;DHT22;8206;51.440;6.914;2022-12-07T05:06:56;3.50;99.90
16198;DHT22;8206;51.440;6.914;2022-12-07T05:09:22;3.50;99.90
16198;DHT22;8206;51.440;6.914;2022-12-07T05:11:50;3.60;99.90
16198;DHT22;8206;51.440;6.914;2022-12-07T05:14:19;3.70;99.90
16198;DHT22;8206;51.440;6.914;2022-12-07T05:16:47;3.70;99.90
16198;DHT22;8206;51.440;6.914;2022-12-07T05:19:15;3.70;99.90
16198;DHT22;8206;51.440;6.914;2022-12-07T05:21:42;3.70;99.90
16198;DHT22;8206;51.440;6.914;2022-12-07T05:24:11;3.70;99.90
16198;DHT22;8206;51.440;6.914;2022-12-07T05:26:38;3.70;99.90
16198;DHT22;8206;51.440;6.914;2022-12-07T05:29:06;3.80;99.90
16198;DHT22;8206;51.440;6.914;2022-12-07T05:31:33;3.80;99.90
16198;DHT22;8206;51.440;6.914;2022-12-07T05:34:00;3.80;99.90
16198;DHT22;8206;51.440;6.914;2022-12-07T05:36:27;3.80;99.90
16198;DHT22;8206;51.440;6.914;2022-12-07T05:38:56;3.80;99.90
16198;DHT22;8206;51.440;6.914;2022-12-07T05:41:23;3.80;99.90
16198;DHT22;8206;51.440;6.914;2022-12-07T05:44:09;3.80;99.90
16198;DHT22;8206;51.440;6.914;2022-12-07T05:46:35;3.80;99.90
16198;DHT22;8206;51.440;6.914;2022-12-07T05:49:02;3.80;99.90
16198;DHT22;8206;51.440;6.914;2022-12-07T05:51:29;3.80;99.90
16198;DHT22;8206;51.440;6.914;2022-12-07T05:53:56;3.80;99.90
16198;DHT22;8206;51.440;6.914;2022-12-07T05:56:23;3.90;99.90
16198;DHT22;8206;51.440;6.914;2022-12-07T05:58:50;3.80;99.90
16198;DHT22;8206;51.440;6.914;2022-12-07T06:01:35;3.90;99.90
16198;DHT22;8206;51.440;6.914;2022-12-07T06:04:02;3.80;99.90
16198;DHT22;8206;51.440;6.914;2022-12-07T06:06:29;3.80;99.90
16198;DHT22;8206;51.440;6.914;2022-12-07T06:08:56;3.80;99.90
16198;DHT22;8206;51.440;6.914;2022-12-07T06:11:22;3.80;99.90
16198;DHT22;8206;51.440;6.914;2022-12-07T06:14:07;3.80;99.90
16198;DHT22;8206;51.440;6.914;2022-12-07T06:16:33;3.70;99.90
16198;DHT22;8206;51.440;6.914;2022-12-07T06:19:02;3.60;99.90
16198;DHT22;8206;51.440;6.914;2022-12-07T06:21:28;3.60;99.90
16198;DHT22;8206;51.440;6.914;2022-12-07T06:23:55;3.50;99.90
16198;DHT22;8206;51.440;6.914;2022-12-07T06:26:22;3.60;99.90
16198;DHT22;8206;51.440;6.914;2022-12-07T06:28:49;3.60;99.90
16198;DHT22;8206;51.440;6.914;2022-12-07T06:31:16;3.70;99.90
16198;DHT22;8206;51.440;6.914;2022-12-07T06:33:43;3.80;99.90
16198;DHT22;8206;51.440;6.914;2022-12-07T06:36:11;3.80;99.90
16198;DHT22;8206;51.440;6.914;2022-12-07T06:38:38;3.90;99.90
16198;DHT22;8206;51.440;6.914;2022-12-07T06:41:05;3.90;99.90
16198;DHT22;8206;51.440;6.914;2022-12-07T06:43:32;3.90;99.90
16198;DHT22;8206;51.440;6.914;2022-12-07T06:45:59;3.90;99.90
16198;DHT22;8206;51.440;6.914;2022-12-07T06:48:25;4.00;99.90
16198;DHT22;8206;51.440;6.914;2022-12-07T06:50:52;4.00;99.90
16198;DHT22;8206;51.440;6.914;2022-12-07T06:53:20;4.00;99.90
16198;DHT22;8206;51.440;6.914;2022-12-07T06:55:47;4.00;99.90
16198;DHT22;8206;51.440;6.914;2022-12-07T06:58:14;3.90;99.90
16198;DHT22;8206;51.440;6.914;2022-12-07T07:00:40;3.80;99.90
16198;DHT22;8206;51.440;6.914;2022-12-07T07:03:07;3.70;99.90
16198;DHT22;8206;51.440;6.914;2022-12-07T07:05:34;3.60;99.90
16198;DHT22;8206;51.440;6.914;2022-12-07T07:08:01;3.60;99.90
16198;DHT22;8206;51.440;6.914;2022-12-07T07:10:29;3.70;99.90
16198;DHT22;8206;51.440;6.914;2022-12-07T07:12:56;3.70;99.90
16198;DHT22;8206;51.440;6.914;2022-12-07T07:15:23;3.80;99.90
16198;DHT22;8206;51.440;6.914;2022-12-07T07:17:50;3.80;99.90
16198;DHT22;8206;51.440;6.914;2022-12-07T07:20:16;3.80;99.90
16198;DHT22;8206;51.440;6.914;2022-12-07T07:22:43;3.70;99.90
16198;DHT22;8206;51.440;6.914;2022-12-07T07:25:10;3.70;99.90
16198;DHT22;8206;51.440;6.914;2022-12-07T07:27:38;3.70;99.90
16198;DHT22;8206;51.440;6.914;2022-12-07T07:30:06;3.70;99.90
16198;DHT22;8206;51.440;6.914;2022-12-07T07:32:33;3.70;99.90
16198;DHT22;8206;51.440;6.914;2022-12-07T07:35:00;3.80;99.90
16198;DHT22;8206;51.440;6.914;2022-12-07T07:37:27;3.80;99.90
16198;DHT22;8206;51.440;6.914;2022-12-07T07:39:54;3.80;99.90
16198;DHT22;8206;51.440;6.914;2022-12-07T07:42:21;3.90;99.90
16198;DHT22;8206;51.440;6.914;2022-12-07T07:44:49;3.90;99.90
16198;DHT22;8206;51.440;6.914;2022-12-07T07:47:15;3.90;99.90
16198;DHT22;8206;51.440;6.914;2022-12-07T07:49:42;3.90;99.90
16198;DHT22;8206;51.440;6.914;2022-12-07T07:52:09;4.00;99.90
16198;DHT22;8206;51.440;6.914;2022-12-07T07:54:36;4.00;99.90
16198;DHT22;8206;51.440;6.914;2022-12-07T07:57:03;4.00;99.90
16198;DHT22;8206;51.440;6.914;2022-12-07T07:59:30;4.10;99.90
16198;DHT22;8206;51.440;6.914;2022-12-07T08:01:58;4.10;99.90
16198;DHT22;8206;51.440;6.914;2022-12-07T08:04:24;4.20;99.90
16198;DHT22;8206;51.440;6.914;2022-12-07T08:06:51;4.20;99.90
16198;DHT22;8206;51.440;6.914;2022-12-07T08:09:18;4.20;99.90
16198;DHT22;8206;51.440;6.914;2022-12-07T08:11:45;4.20;99.90
16198;DHT22;8206;51.440;6.914;2022-12-07T08:14:12;4.20;99.90
16198;DHT22;8206;51.440;6.914;2022-12-07T08:16:38;4.20;99.90
16198;DHT22;8206;51.440;6.914;2022-12-07T08:19:07;4.20;99.90
16198;DHT22;8206;51.440;6.914;2022-12-07T08:21:33;4.30;99.90
16198;DHT22;8206;51.440;6.914;2022-12-07T08:24:00;4.30;99.90
16198;DHT22;8206;51.440;6.914;2022-12-07T08:26:27;4.30;99.90
16198;DHT22;8206;51.440;6.914;2022-12-07T08:28:54;4.30;99.90
16198;DHT22;8206;51.440;6.914;2022-12-07T08:31:20;4.30;99.90
16198;DHT22;8206;51.440;6.914;2022-12-07T08:33:48;4.30;99.90
16198;DHT22;8206;51.440;6.914;2022-12-07T08:36:16;4.30;99.90
16198;DHT22;8206;51.440;6.914;2022-12-07T08:38:43;4.20;99.90
16198;DHT22;8206;51.440;6.914;2022-12-07T08:41:10;4.10;99.90
16198;DHT22;8206;51.440;6.914;2022-12-07T08:43:37;4.10;99.90
16198;DHT22;8206;51.440;6.914;2022-12-07T08:46:08;3.90;99.90
16198;DHT22;8206;51.440;6.914;2022-12-07T08:48:37;3.90;99.90
16198;DHT22;8206;51.440;6.914;2022-12-07T08:51:06;3.70;99.90
16198;DHT22;8206;51.440;6.914;2022-12-07T08:53:35;3.70;99.90
16198;DHT22;8206;51.440;6.914;2022-12-07T08:56:04;3.80;99.90
16198;DHT22;8206;51.440;6.914;2022-12-07T08:58:31;3.90;99.90
16198;DHT22;8206;51.440;6.914;2022-12-07T09:00:59;4.10;99.90
16198;DHT22;8206;51.440;6.914;2022-12-07T09:03:25;4.20;99.90
16198;DHT22;8206;51.440;6.914;2022-12-07T09:05:53;4.30;99.90
16198;DHT22;8206;51.440;6.914;2022-12-07T09:08:20;4.30;99.90
16198;DHT22;8206;51.440;6.914;2022-12-07T09:10:49;4.30;99.90
16198;DHT22;8206;51.440;6.914;2022-12-07T09:13:16;4.30;99.90
16198;DHT22;8206;51.440;6.914;2022-12-07T09:15:43;4.20;99.90
16198;DHT22;8206;51.440;6.914;2022-12-07T09:18:09;4.10;99.90
16198;DHT22;8206;51.440;6.914;2022-12-07T09:20:36;4.20;99.90
16198;DHT22;8206;51.440;6.914;2022-12-07T09:23:05;4.20;99.90
16198;DHT22;8206;51.440;6.914;2022-12-07T09:25:32;4.30;99.90
16198;DHT22;8206;51.440;6.914;2022-12-07T09:28:00;4.50;99.90
16198;DHT22;8206;51.440;6.914;2022-12-07T09:30:28;4.60;99.90
16198;DHT22;8206;51.440;6.914;2022-12-07T09:32:55;4.70;99.90
16198;DHT22;8206;51.440;6.914;2022-12-07T09:35:23;4.90;99.90
16198;DHT22;8206;51.440;6.914;2022-12-07T09:37:50;5.00;99.90
16198;DHT22;8206;51.440;6.914;2022-12-07T09:40:18;5.20;99.90
16198;DHT22;8206;51.440;6.914;2022-12-07T09:42:49;5.20;99.90
16198;DHT22;8206;51.440;6.914;2022-12-07T09:45:21;5.30;99.90
16198;DHT22;8206;51.440;6.914;2022-12-07T09:47:49;5.30;99.90
16198;DHT22;8206;51.440;6.914;2022-12-07T09:50:20;5.20;99.90
16198;DHT22;8206;51.440;6.914;2022-12-07T09:52:48;5.30;99.90
16198;DHT22;8206;51.440;6.914;2022-12-07T09:55:21;5.40;99.90
16198;DHT22;8206;51.440;6.914;2022-12-07T09:57:50;5.40;99.90
16198;DHT22;8206;51.440;6.914;2022-12-07T10:00:21;5.40;99.90
16198;DHT22;8206;51.440;6.914;2022-12-07T10:02:51;5.30;99.90
16198;DHT22;8206;51.440;6.914;2022-12-07T10:05:24;5.10;99.90
16198;DHT22;8206;51.440;6.914;2022-12-07T10:07:52;4.90;99.90
16198;DHT22;8206;51.440;6.914;2022-12-07T10:10:23;4.80;99.90
16198;DHT22;8206;51.440;6.914;2022-12-07T10:12:59;4.80;99.90
16198;DHT22;8206;51.440;6.914;2022-12-07T10:15:43;4.80;99.90
16198;DHT22;8206;51.440;6.914;2022-12-07T10:18:29;5.00;99.90
16198;DHT22;8206;51.440;6.914;2022-12-07T10:21:13;5.20;99.90
16198;DHT22;8206;51.440;6.914;2022-12-07T10:23:43;5.50;99.90
16198;DHT22;8206;51.440;6.914;2022-12-07T10:26:31;5.80;99.90
16198;DHT22;8206;51.440;6.914;2022-12-07T10:29:04;6.00;99.90
16198;DHT22;8206;51.440;6.914;2022-12-07T10:31:41;6.10;99.90
16198;DHT22;8206;51.440;6.914;2022-12-07T10:34:21;6.10;99.90
16198;DHT22;8206;51.440;6.914;2022-12-07T10:36:49;6.00;99.90
16198;DHT22;8206;51.440;6.914;2022-12-07T10:39:18;6.00;99.90
16198;DHT22;8206;51.440;6.914;2022-12-07T10:41:53;6.00;99.90
16198;DHT22;8206;51.440;6.914;2022-12-07T10:44:23;6.20;99.90
16198;DHT22;8206;51.440;6.914;2022-12-07T10:47:01;6.20;99.90
16198;DHT22;8206;51.440;6.914;2022-12-07T10:49:44;6.40;99.90
16198;DHT22;8206;51.440;6.914;2022-12-07T10:52:20;6.40;99.90
16198;DHT22;8206;51.440;6.914;2022-12-07T10:55:04;6.40;99.90
16198;DHT22;8206;51.440;6.914;2022-12-07T10:57:44;6.50;99.90
16198;DHT22;8206;51.440;6.914;2022-12-07T11:00:17;6.50;99.90
16198;DHT22;8206;51.440;6.914;2022-12-07T11:03:05;6.60;99.90
16198;DHT22;8206;51.440;6.914;2022-12-07T11:05:40;6.60;99.90
16198;DHT22;8206;51.440;6.914;2022-12-07T11:08:18;6.60;99.90
16198;DHT22;8206;51.440;6.914;2022-12-07T11:10:53;6.60;99.90
16198;DHT22;8206;51.440;6.914;2022-12-07T11:13:31;6.50;99.90
16198;DHT22;8206;51.440;6.914;2022-12-07T11:16:19;6.50;99.90
16198;DHT22;8206;51.440;6.914;2022-12-07T11:19:03;6.50;99.90
16198;DHT22;8206;51.440;6.914;2022-12-07T11:21:38;6.50;99.90
16198;DHT22;8206;51.440;6.914;2022-12-07T11:24:13;6.40;99.90
16198;DHT22;8206;51.440;6.914;2022-12-07T11:26:56;6.40;99.90
16198;DHT22;8206;51.440;6.914;2022-12-07T11:29:44;6.40;99.90
16198;DHT22;8206;51.440;6.914;2022-12-07T11:32:17;6.50;99.90
16198;DHT22;8206;51.440;6.914;2022-12-07T11:34:58;6.60;99.90
16198;DHT22;8206;51.440;6.914;2022-12-07T11:37:30;6.60;99.90
16198;DHT22;8206;51.440;6.914;2022-12-07T11:40:01;6.50;99.90
16198;DHT22;8206;51.440;6.914;2022-12-07T11:42:31;6.40;99.90
16198;DHT22;8206;51.440;6.914;2022-12-07T11:45:02;6.40;99.90
16198;DHT22;8206;51.440;6.914;2022-12-07T11:47:36;6.40;99.90
16198;DHT22;8206;51.440;6.914;2022-12-07T11:50:20;6.60;99.90
16198;DHT22;8206;51.440;6.914;2022-12-07T11:52:51;6.70;99.90
16198;DHT22;8206;51.440;6.914;2022-12-07T11:55:21;6.70;99.90
16198;DHT22;8206;51.440;6.914;2022-12-07T11:57:54;6.80;99.90
16198;DHT22;8206;51.440;6.914;2022-12-07T12:00:24;6.80;99.90
16198;DHT22;8206;51.440;6.914;2022-12-07T12:02:57;6.80;99.90
16198;DHT22;8206;51.440;6.914;2022-12-07T12:05:27;6.70;99.90
16198;DHT22;8206;51.440;6.914;2022-12-07T12:08:01;6.70;99.90
16198;DHT22;8206;51.440;6.914;2022-12-07T12:10:37;6.60;99.90
16198;DHT22;8206;51.440;6.914;2022-12-07T12:13:28;6.60;99.90
16198;DHT22;8206;51.440;6.914;2022-12-07T12:19:06;6.50;99.90
16198;DHT22;8206;51.440;6.914;2022-12-07T12:21:39;6.60;99.90
16198;DHT22;8206;51.440;6.914;2022-12-07T12:24:11;6.60;99.90
16198;DHT22;8206;51.440;6.914;2022-12-07T12:26:49;6.60;99.90
16198;DHT22;8206;51.440;6.914;2022-12-07T12:29:21;6.60;99.90
16198;DHT22;8206;51.440;6.914;2022-12-07T12:32:06;6.60;99.90
16198;DHT22;8206;51.440;6.914;2022-12-07T12:34:40;6.70;99.90
16198;DHT22;8206;51.440;6.914;2022-12-07T12:37:40;6.70;99.90
16198;DHT22;8206;51.440;6.914;2022-12-07T12:40:43;6.70;99.90
16198;DHT22;8206;51.440;6.914;2022-12-07T12:43:42;6.60;99.90
16198;DHT22;8206;51.440;6.914;2022-12-07T12:46:37;6.60;99.90
16198;DHT22;8206;51.440;6.914;2022-12-07T12:58:35;6.50;99.90
16198;DHT22;8206;51.440;6.914;2022-12-07T13:01:37;6.50;99.90
16198;DHT22;8206;51.440;6.914;2022-12-07T13:04:17;6.40;99.90
16198;DHT22;8206;51.440;6.914;2022-12-07T13:06:45;6.40;99.90
16198;DHT22;8206;51.440;6.914;2022-12-07T13:09:20;6.40;99.90
16198;DHT22;8206;51.440;6.914;2022-12-07T13:11:48;6.40;99.90
16198;DHT22;8206;51.440;6.914;2022-12-07T13:14:42;6.40;99.90
16198;DHT22;8206;51.440;6.914;2022-12-07T13:17:10;6.40;99.90
16198;DHT22;8206;51.440;6.914;2022-12-07T13:19:53;6.40;99.90
16198;DHT22;8206;51.440;6.914;2022-12-07T13:22:43;6.40;99.90
16198;DHT22;8206;51.440;6.914;2022-12-07T13:25:12;6.40;99.90
16198;DHT22;8206;51.440;6.914;2022-12-07T13:27:48;6.40;99.90
16198;DHT22;8206;51.440;6.914;2022-12-07T13:30:20;6.40;99.90
16198;DHT22;8206;51.440;6.914;2022-12-07T13:32:52;6.20;99.90
16198;DHT22;8206;51.440;6.914;2022-12-07T13:35:31;6.10;99.90
16198;DHT22;8206;51.440;6.914;2022-12-07T13:37:58;5.90;99.90
16198;DHT22;8206;51.440;6.914;2022-12-07T13:40:26;5.90;99.90
16198;DHT22;8206;51.440;6.914;2022-12-07T13:43:00;5.80;99.90
16198;DHT22;8206;51.440;6.914;2022-12-07T13:45:29;5.80;99.90
16198;DHT22;8206;51.440;6.914;2022-12-07T13:48:20;5.60;99.90
16198;DHT22;8206;51.440;6.914;2022-12-07T13:50:54;5.40;99.90
16198;DHT22;8206;51.440;6.914;2022-12-07T13:53:21;5.30;99.90
16198;DHT22;8206;51.440;6.914;2022-12-07T13:55:48;5.30;99.90
16198;DHT22;8206;51.440;6.914;2022-12-07T13:58:15;5.30;99.90
16198;DHT22;8206;51.440;6.914;2022-12-07T14:00:44;5.20;99.90
16198;DHT22;8206;51.440;6.914;2022-12-07T14:03:26;5.20;99.90
16198;DHT22;8206;51.440;6.914;2022-12-07T14:06:11;5.10;99.90
16198;DHT22;8206;51.440;6.914;2022-12-07T14:08:39;5.20;99.90
16198;DHT22;8206;51.440;6.914;2022-12-07T14:11:09;5.10;99.90
16198;DHT22;8206;51.440;6.914;2022-12-07T14:13:39;5.00;99.90
16198;DHT22;8206;51.440;6.914;2022-12-07T14:16:21;5.00;99.90
16198;DHT22;8206;51.440;6.914;2022-12-07T14:18:49;5.00;99.90
16198;DHT22;8206;51.440;6.914;2022-12-07T14:21:17;5.00;99.90
16198;DHT22;8206;51.440;6.914;2022-12-07T14:23:45;4.90;99.90
16198;DHT22;8206;51.440;6.914;2022-12-07T14:26:13;4.90;99.90
16198;DHT22;8206;51.440;6.914;2022-12-07T14:28:41;4.80;99.90
16198;DHT22;8206;51.440;6.914;2022-12-07T14:31:12;4.80;99.90
16198;DHT22;8206;51.440;6.914;2022-12-07T14:33:40;4.80;99.90
16198;DHT22;8206;51.440;6.914;2022-12-07T14:36:09;4.80;99.90
16198;DHT22;8206;51.440;6.914;2022-12-07T14:38:35;4.70;99.90
16198;DHT22;8206;51.440;6.914;2022-12-07T14:41:03;4.70;99.90
16198;DHT22;8206;51.440;6.914;2022-12-07T14:43:48;4.60;99.90
16198;DHT22;8206;51.440;6.914;2022-12-07T14:46:15;4.60;99.90
16198;DHT22;8206;51.440;6.914;2022-12-07T14:48:43;4.50;99.90
16198;DHT22;8206;51.440;6.914;2022-12-07T14:51:10;4.50;99.90
16198;DHT22;8206;51.440;6.914;2022-12-07T14:53:43;4.40;99.90
16198;DHT22;8206;51.440;6.914;2022-12-07T14:56:10;4.40;99.90
16198;DHT22;8206;51.440;6.914;2022-12-07T14:58:40;4.40;99.90
16198;DHT22;8206;51.440;6.914;2022-12-07T15:01:07;4.30;99.90
16198;DHT22;8206;51.440;6.914;2022-12-07T15:03:34;4.20;99.90
16198;DHT22;8206;51.440;6.914;2022-12-07T15:06:04;4.20;99.90
16198;DHT22;8206;51.440;6.914;2022-12-07T15:08:32;4.10;99.90
16198;DHT22;8206;51.440;6.914;2022-12-07T15:10:59;4.10;99.90
16198;DHT22;8206;51.440;6.914;2022-12-07T15:13:25;4.00;99.90
16198;DHT22;8206;51.440;6.914;2022-12-07T15:16:11;4.10;99.90
16198;DHT22;8206;51.440;6.914;2022-12-07T15:18:39;4.00;99.90
16198;DHT22;8206;51.440;6.914;2022-12-07T15:21:12;4.00;99.90
16198;DHT22;8206;51.440;6.914;2022-12-07T15:23:40;3.90;99.90
16198;DHT22;8206;51.440;6.914;2022-12-07T15:26:07;3.90;99.90
16198;DHT22;8206;51.440;6.914;2022-12-07T15:28:34;4.00;99.90
16198;DHT22;8206;51.440;6.914;2022-12-07T15:31:01;4.00;99.90
16198;DHT22;8206;51.440;6.914;2022-12-07T15:33:27;3.90;99.90
16198;DHT22;8206;51.440;6.914;2022-12-07T15:35:54;3.90;99.90
16198;DHT22;8206;51.440;6.914;2022-12-07T15:38:22;3.90;99.90
16198;DHT22;8206;51.440;6.914;2022-12-07T15:40:50;3.90;99.90
16198;DHT22;8206;51.440;6.914;2022-12-07T15:43:17;3.90;99.90
16198;DHT22;8206;51.440;6.914;2022-12-07T15:45:58;3.80;99.90
16198;DHT22;8206;51.440;6.914;2022-12-07T15:48:25;3.80;99.90
16198;DHT22;8206;51.440;6.914;2022-12-07T15:50:51;3.80;99.90
16198;DHT22;8206;51.440;6.914;2022-12-07T15:53:18;3.80;99.90
16198;DHT22;8206;51.440;6.914;2022-12-07T15:55:46;3.70;99.90
16198;DHT22;8206;51.440;6.914;2022-12-07T15:58:13;3.80;99.90
16198;DHT22;8206;51.440;6.914;2022-12-07T16:00:40;3.90;99.90
16198;DHT22;8206;51.440;6.914;2022-12-07T16:03:06;4.00;99.90
16198;DHT22;8206;51.440;6.914;2022-12-07T16:05:33;4.10;99.90
16198;DHT22;8206;51.440;6.914;2022-12-07T16:08:00;4.10;99.90
16198;DHT22;8206;51.440;6.914;2022-12-07T16:10:27;4.10;99.90
16198;DHT22;8206;51.440;6.914;2022-12-07T16:12:55;4.20;99.90
16198;DHT22;8206;51.440;6.914;2022-12-07T16:15:21;4.20;99.90
16198;DHT22;8206;51.440;6.914;2022-12-07T16:17:49;4.20;99.90
16198;DHT22;8206;51.440;6.914;2022-12-07T16:20:16;4.20;99.90
16198;DHT22;8206;51.440;6.914;2022-12-07T16:22:43;4.30;99.90
16198;DHT22;8206;51.440;6.914;2022-12-07T16:25:10;4.30;99.90
16198;DHT22;8206;51.440;6.914;2022-12-07T16:27:37;4.40;99.90
16198;DHT22;8206;51.440;6.914;2022-12-07T16:30:06;4.40;99.90
16198;DHT22;8206;51.440;6.914;2022-12-07T16:32:33;4.40;99.90
16198;DHT22;8206;51.440;6.914;2022-12-07T16:35:00;4.40;99.90
16198;DHT22;8206;51.440;6.914;2022-12-07T16:37:27;4.50;99.90